createdAt,value
2017-07-02T00:00:22.529Z,1009.12
2017-07-02T00:01:16.625Z,1009.12
2017-07-02T00:02:10.620Z,1009.11
2017-07-02T00:03:04.561Z,1009.10
2017-07-02T00:03:53.705Z,1009.08
2017-07-02T00:04:42.111Z,1009.08
2017-07-02T00:05:29.694Z,1009.10
2017-07-02T00:06:23.794Z,1009.11
2017-07-02T00:07:23.758Z,1009.11
2017-07-02T00:08:18.808Z,1009.12
2017-07-02T00:09:14.136Z,1009.13
2017-07-02T00:10:14.894Z,1009.10
2017-07-02T00:11:14.992Z,1009.10
2017-07-02T00:12:09.014Z,1009.12
2017-07-02T00:13:03.076Z,1009.11
2017-07-02T00:14:03.113Z,1009.07
2017-07-02T00:15:03.086Z,1009.10
2017-07-02T00:16:04.089Z,1009.13
2017-07-02T00:17:04.238Z,1009.15
2017-07-02T00:17:53.183Z,1009.11
2017-07-02T00:18:47.254Z,1009.12
2017-07-02T00:19:35.428Z,1009.14
2017-07-02T00:20:29.376Z,1009.14
2017-07-02T00:21:18.398Z,1009.14
2017-07-02T00:22:13.430Z,1009.17
2017-07-02T00:23:07.440Z,1009.12
2017-07-02T00:23:55.823Z,1009.14
2017-07-02T00:24:44.825Z,1009.14
2017-07-02T00:25:32.655Z,1009.16
2017-07-02T00:26:20.677Z,1009.14
2017-07-02T00:27:09.723Z,1009.18
2017-07-02T00:28:03.595Z,1009.18
2017-07-02T00:28:57.845Z,1009.19
2017-07-02T00:29:51.747Z,1009.21
2017-07-02T00:30:51.879Z,1009.18
2017-07-02T00:31:45.844Z,1009.18
2017-07-02T00:32:40.965Z,1009.14
2017-07-02T00:33:34.939Z,1009.19
2017-07-02T00:34:28.972Z,1009.16
2017-07-02T00:35:18.001Z,1009.21
2017-07-02T00:36:06.088Z,1009.17
2017-07-02T00:36:55.149Z,1009.22
2017-07-02T00:37:44.112Z,1009.21
2017-07-02T00:38:38.233Z,1009.18
2017-07-02T00:39:33.680Z,1009.21
2017-07-02T00:40:27.262Z,1009.24
2017-07-02T00:41:21.413Z,1009.27
2017-07-02T00:42:16.284Z,1009.23
2017-07-02T00:43:11.432Z,1009.25
2017-07-02T00:44:00.427Z,1009.26
2017-07-02T00:44:49.487Z,1009.28
2017-07-02T00:45:37.542Z,1009.29
2017-07-02T00:46:25.572Z,1009.29
2017-07-02T00:47:14.595Z,1009.30
2017-07-02T00:48:02.629Z,1009.29
2017-07-02T00:48:50.679Z,1009.28
2017-07-02T00:49:38.690Z,1009.31
2017-07-02T00:50:27.879Z,1009.36
2017-07-02T00:51:15.699Z,1009.29
2017-07-02T00:52:03.916Z,1009.33
2017-07-02T00:52:52.861Z,1009.35
2017-07-02T00:53:40.869Z,1009.34
2017-07-02T00:54:28.913Z,1009.33
2017-07-02T00:55:28.917Z,1009.37
2017-07-02T00:56:29.017Z,1009.34
2017-07-02T00:57:23.098Z,1009.33
2017-07-02T00:58:23.206Z,1009.35
2017-07-02T00:59:17.106Z,1009.35
2017-07-02T01:00:06.235Z,1009.38
2017-07-02T01:01:01.236Z,1009.35
2017-07-02T01:02:01.264Z,1009.37
2017-07-02T01:02:55.443Z,1009.35
2017-07-02T01:03:44.342Z,1009.30
2017-07-02T01:04:32.447Z,1009.33
2017-07-02T01:05:21.518Z,1009.29
2017-07-02T01:06:09.448Z,1009.30
2017-07-02T01:06:57.520Z,1009.27
2017-07-02T01:07:57.579Z,1009.31
2017-07-02T01:08:57.542Z,1009.25
2017-07-02T01:09:51.627Z,1009.25
2017-07-02T01:10:52.727Z,1009.27
2017-07-02T01:11:52.688Z,1009.26
2017-07-02T01:12:46.777Z,1009.19
2017-07-02T01:13:41.953Z,1009.24
2017-07-02T01:14:30.762Z,1009.22
2017-07-02T01:15:18.869Z,1009.19
2017-07-02T01:16:07.937Z,1009.21
2017-07-02T01:16:57.004Z,1009.23
2017-07-02T01:17:50.868Z,1009.21
2017-07-02T01:18:51.935Z,1009.24
2017-07-02T01:19:52.926Z,1009.23
2017-07-02T01:20:47.085Z,1009.20
2017-07-02T01:21:41.082Z,1009.23
2017-07-02T01:22:41.205Z,1009.24
2017-07-02T01:23:41.099Z,1009.24
2017-07-02T01:24:30.339Z,1009.28
2017-07-02T01:25:19.193Z,1009.28
2017-07-02T01:26:08.300Z,1009.27
2017-07-02T01:26:57.352Z,1009.32
2017-07-02T01:27:51.448Z,1009.28
2017-07-02T01:28:51.542Z,1009.28
2017-07-02T01:29:51.527Z,1009.27
2017-07-02T01:30:51.459Z,1009.24
2017-07-02T01:31:46.505Z,1009.28
2017-07-02T01:32:46.586Z,1009.34
2017-07-02T01:33:46.647Z,1009.31
2017-07-02T01:34:41.669Z,1009.32
2017-07-02T01:35:36.625Z,1009.30
2017-07-02T01:36:30.677Z,1009.33
2017-07-02T01:37:30.769Z,1009.32
2017-07-02T01:38:30.803Z,1009.34
2017-07-02T01:39:31.228Z,1009.35
2017-07-02T01:40:25.966Z,1009.34
2017-07-02T01:41:20.872Z,1009.39
2017-07-02T01:42:21.898Z,1009.37
2017-07-02T01:43:16.956Z,1009.34
2017-07-02T01:44:04.967Z,1009.37
2017-07-02T01:44:54.036Z,1009.37
2017-07-02T01:45:42.048Z,1009.36
2017-07-02T01:46:30.173Z,1009.42
2017-07-02T01:47:19.203Z,1009.37
2017-07-02T01:48:14.209Z,1009.40
2017-07-02T01:49:03.490Z,1009.39
2017-07-02T01:49:52.173Z,1009.35
2017-07-02T01:50:46.258Z,1009.40
2017-07-02T01:51:47.318Z,1009.37
2017-07-02T01:52:41.431Z,1009.35
2017-07-02T01:53:41.327Z,1009.36
2017-07-02T01:54:36.514Z,1009.38
2017-07-02T01:55:31.541Z,1009.40
2017-07-02T01:56:31.576Z,1009.35
2017-07-02T01:57:25.609Z,1009.38
2017-07-02T01:58:20.575Z,1009.39
2017-07-02T01:59:08.620Z,1009.40
2017-07-02T01:59:56.698Z,1009.38
2017-07-02T02:00:56.725Z,1009.38
2017-07-02T02:01:56.736Z,1009.43
2017-07-02T02:02:50.960Z,1009.40
2017-07-02T02:03:38.829Z,1009.38
2017-07-02T02:04:33.907Z,1009.35
2017-07-02T02:05:21.901Z,1009.35
2017-07-02T02:06:16.938Z,1009.37
2017-07-02T02:07:10.916Z,1009.32
2017-07-02T02:08:00.088Z,1009.33
2017-07-02T02:08:48.100Z,1009.33
2017-07-02T02:09:42.025Z,1009.32
2017-07-02T02:10:43.153Z,1009.32
2017-07-02T02:11:43.159Z,1009.27
2017-07-02T02:12:38.287Z,1009.28
2017-07-02T02:13:38.300Z,1009.29
2017-07-02T02:14:32.347Z,1009.27
2017-07-02T02:15:32.418Z,1009.28
2017-07-02T02:16:27.372Z,1009.27
2017-07-02T02:17:21.381Z,1009.27
2017-07-02T02:18:21.458Z,1009.27
2017-07-02T02:19:21.590Z,1009.32
2017-07-02T02:20:16.469Z,1009.31
2017-07-02T02:21:11.561Z,1009.28
2017-07-02T02:22:00.548Z,1009.26
2017-07-02T02:22:55.536Z,1009.30
2017-07-02T02:23:55.567Z,1009.28
2017-07-02T02:24:44.749Z,1009.27
2017-07-02T02:25:39.739Z,1009.29
2017-07-02T02:26:28.688Z,1009.26
2017-07-02T02:27:22.859Z,1009.31
2017-07-02T02:28:10.856Z,1009.28
2017-07-02T02:28:59.902Z,1009.30
2017-07-02T02:29:53.881Z,1009.31
2017-07-02T02:30:54.915Z,1009.23
2017-07-02T02:31:55.944Z,1009.26
2017-07-02T02:32:56.010Z,1009.27
2017-07-02T02:33:57.020Z,1009.25
2017-07-02T02:34:52.074Z,1009.29
2017-07-02T02:35:40.305Z,1009.27
2017-07-02T02:36:28.120Z,1009.27
2017-07-02T02:37:22.199Z,1009.25
2017-07-02T02:38:10.282Z,1009.26
2017-07-02T02:39:10.250Z,1009.29
2017-07-02T02:40:10.248Z,1009.27
2017-07-02T02:40:58.412Z,1009.30
2017-07-02T02:41:47.404Z,1009.27
2017-07-02T02:42:47.405Z,1009.27
2017-07-02T02:43:36.437Z,1009.28
2017-07-02T02:44:25.562Z,1009.28
2017-07-02T02:45:31.653Z,1009.31
2017-07-02T02:46:26.634Z,1009.31
2017-07-02T02:47:26.645Z,1009.28
2017-07-02T02:48:21.631Z,1009.26
2017-07-02T02:49:16.653Z,1009.23
2017-07-02T02:50:16.650Z,1009.22
2017-07-02T02:51:11.770Z,1009.22
2017-07-02T02:52:11.877Z,1009.23
2017-07-02T02:53:12.806Z,1009.20
2017-07-02T02:54:12.914Z,1009.26
2017-07-02T02:55:18.842Z,1009.24
2017-07-02T02:56:12.885Z,1009.20
2017-07-02T02:57:07.084Z,1009.20
2017-07-02T02:57:55.998Z,1009.22
2017-07-02T02:58:50.044Z,1009.20
2017-07-02T02:59:38.107Z,1009.20
2017-07-02T03:00:32.098Z,1009.23
2017-07-02T03:01:32.147Z,1009.26
2017-07-02T03:02:27.235Z,1009.28
2017-07-02T03:03:21.314Z,1009.27
2017-07-02T03:04:10.731Z,1009.27
2017-07-02T03:04:59.205Z,1009.22
2017-07-02T03:05:47.423Z,1009.28
2017-07-02T03:06:36.422Z,1009.31
2017-07-02T03:07:25.443Z,1009.26
2017-07-02T03:08:26.655Z,1009.32
2017-07-02T03:09:27.524Z,1009.34
2017-07-02T03:10:27.562Z,1009.35
2017-07-02T03:11:33.535Z,1009.36
2017-07-02T03:12:27.590Z,1009.35
2017-07-02T03:13:27.717Z,1009.36
2017-07-02T03:14:21.690Z,1009.34
2017-07-02T03:15:15.726Z,1009.36
2017-07-02T03:16:09.796Z,1009.37
2017-07-02T03:17:04.817Z,1009.37
2017-07-02T03:17:59.836Z,1009.42
2017-07-02T03:18:54.941Z,1009.35
2017-07-02T03:19:42.877Z,1009.40
2017-07-02T03:20:38.012Z,1009.39
2017-07-02T03:21:37.916Z,1009.42
2017-07-02T03:22:38.126Z,1009.39
2017-07-02T03:23:25.981Z,1009.44
2017-07-02T03:24:15.220Z,1009.44
2017-07-02T03:25:15.264Z,1009.42
2017-07-02T03:26:04.123Z,1009.46
2017-07-02T03:26:58.291Z,1009.44
2017-07-02T03:27:58.239Z,1009.41
2017-07-02T03:28:53.205Z,1009.41
2017-07-02T03:29:48.342Z,1009.43
2017-07-02T03:30:42.359Z,1009.43
2017-07-02T03:31:37.575Z,1009.38
2017-07-02T03:32:26.459Z,1009.42
2017-07-02T03:33:21.496Z,1009.43
2017-07-02T03:34:15.508Z,1009.44
2017-07-02T03:35:15.573Z,1009.44
2017-07-02T03:36:10.645Z,1009.43
2017-07-02T03:36:58.684Z,1009.44
2017-07-02T03:37:58.680Z,1009.44
2017-07-02T03:38:53.731Z,1009.45
2017-07-02T03:39:47.735Z,1009.49
2017-07-02T03:40:42.773Z,1009.50
2017-07-02T03:41:31.784Z,1009.48
2017-07-02T03:42:25.877Z,1009.50
2017-07-02T03:43:25.887Z,1009.49
2017-07-02T03:44:19.981Z,1009.48
2017-07-02T03:45:09.022Z,1009.51
2017-07-02T03:45:58.077Z,1009.55
2017-07-02T03:46:46.070Z,1009.50
2017-07-02T03:47:34.162Z,1009.54
2017-07-02T03:48:22.113Z,1009.53
2017-07-02T03:49:16.150Z,1009.55
2017-07-02T03:50:10.235Z,1009.53
2017-07-02T03:51:04.272Z,1009.57
2017-07-02T03:51:52.436Z,1009.53
2017-07-02T03:52:53.351Z,1009.51
2017-07-02T03:53:42.392Z,1009.53
2017-07-02T03:54:37.380Z,1009.55
2017-07-02T03:55:31.516Z,1009.55
2017-07-02T03:56:32.610Z,1009.58
2017-07-02T03:57:27.509Z,1009.56
2017-07-02T03:58:16.691Z,1009.53
2017-07-02T03:59:05.110Z,1009.54
2017-07-02T03:59:52.698Z,1009.53
2017-07-02T04:00:53.710Z,1009.57
2017-07-02T04:01:47.764Z,1009.57
2017-07-02T04:02:47.814Z,1009.52
2017-07-02T04:03:42.865Z,1009.50
2017-07-02T04:04:37.978Z,1009.53
2017-07-02T04:05:31.882Z,1009.53
2017-07-02T04:06:20.916Z,1009.55
2017-07-02T04:07:16.047Z,1009.56
2017-07-02T04:08:16.059Z,1009.54
2017-07-02T04:09:05.468Z,1009.51
2017-07-02T04:09:53.100Z,1009.51
2017-07-02T04:10:54.190Z,1009.53
2017-07-02T04:11:55.250Z,1009.52
2017-07-02T04:12:49.352Z,1009.50
2017-07-02T04:13:43.329Z,1009.51
2017-07-02T04:14:43.377Z,1009.59
2017-07-02T04:15:37.419Z,1009.59
2017-07-02T04:16:26.410Z,1009.63
2017-07-02T04:17:26.447Z,1009.62
2017-07-02T04:18:26.452Z,1009.63
2017-07-02T04:19:26.936Z,1009.63
2017-07-02T04:20:26.530Z,1009.63
2017-07-02T04:21:26.559Z,1009.65
2017-07-02T04:22:20.558Z,1009.65
2017-07-02T04:23:09.673Z,1009.64
2017-07-02T04:24:04.117Z,1009.61
2017-07-02T04:24:52.799Z,1009.58
2017-07-02T04:25:41.846Z,1009.59
2017-07-02T04:26:41.924Z,1009.60
2017-07-02T04:27:36.866Z,1009.63
2017-07-02T04:28:31.849Z,1009.58
2017-07-02T04:29:21.031Z,1009.60
2017-07-02T04:30:14.974Z,1009.60
2017-07-02T04:31:03.078Z,1009.58
2017-07-02T04:31:51.163Z,1009.57
2017-07-02T04:32:46.213Z,1009.55
2017-07-02T04:33:46.076Z,1009.54
2017-07-02T04:34:40.263Z,1009.53
2017-07-02T04:35:35.229Z,1009.53
2017-07-02T04:36:30.234Z,1009.56
2017-07-02T04:37:30.306Z,1009.56
2017-07-02T04:38:30.330Z,1009.56
2017-07-02T04:39:24.372Z,1009.59
2017-07-02T04:40:18.476Z,1009.57
2017-07-02T04:41:18.478Z,1009.59
2017-07-02T04:42:18.462Z,1009.58
2017-07-02T04:43:18.466Z,1009.59
2017-07-02T04:44:18.541Z,1009.57
2017-07-02T04:45:13.609Z,1009.62
2017-07-02T04:46:01.871Z,1009.64
2017-07-02T04:46:50.678Z,1009.64
2017-07-02T04:47:50.722Z,1009.61
2017-07-02T04:48:45.723Z,1009.67
2017-07-02T04:49:39.753Z,1009.63
2017-07-02T04:50:33.839Z,1009.67
2017-07-02T04:51:22.867Z,1009.72
2017-07-02T04:52:16.918Z,1009.67
2017-07-02T04:53:10.940Z,1009.68
2017-07-02T04:54:06.314Z,1009.69
2017-07-02T04:54:55.010Z,1009.68
2017-07-02T04:55:49.066Z,1009.74
2017-07-02T04:56:43.172Z,1009.77
2017-07-02T04:57:37.252Z,1009.75
2017-07-02T04:58:38.230Z,1009.82
2017-07-02T04:59:38.289Z,1009.78
2017-07-02T05:00:26.255Z,1009.75
2017-07-02T05:01:26.343Z,1009.73
2017-07-02T05:02:20.402Z,1009.69
2017-07-02T05:03:20.402Z,1009.71
2017-07-02T05:04:15.530Z,1009.71
2017-07-02T05:05:09.590Z,1009.71
2017-07-02T05:06:04.486Z,1009.74
2017-07-02T05:07:05.557Z,1009.71
2017-07-02T05:08:05.594Z,1009.70
2017-07-02T05:09:00.746Z,1009.70
2017-07-02T05:10:01.669Z,1009.69
2017-07-02T05:10:56.651Z,1009.69
2017-07-02T05:11:51.753Z,1009.72
2017-07-02T05:12:46.791Z,1009.70
2017-07-02T05:13:41.778Z,1009.72
2017-07-02T05:14:35.881Z,1009.71
2017-07-02T05:15:36.865Z,1009.72
2017-07-02T05:16:36.871Z,1009.74
2017-07-02T05:17:30.926Z,1009.77
2017-07-02T05:18:26.160Z,1009.75
2017-07-02T05:19:15.036Z,1009.79
2017-07-02T05:20:15.146Z,1009.75
2017-07-02T05:21:04.231Z,1009.73
2017-07-02T05:21:58.165Z,1009.74
2017-07-02T05:22:46.267Z,1009.75
2017-07-02T05:23:46.310Z,1009.79
2017-07-02T05:24:35.388Z,1009.73
2017-07-02T05:25:24.366Z,1009.75
2017-07-02T05:26:24.387Z,1009.77
2017-07-02T05:27:19.460Z,1009.76
2017-07-02T05:28:19.540Z,1009.77
2017-07-02T05:29:14.523Z,1009.75
2017-07-02T05:30:08.613Z,1009.79
2017-07-02T05:31:08.600Z,1009.78
2017-07-02T05:32:02.696Z,1009.76
2017-07-02T05:32:50.646Z,1009.76
2017-07-02T05:33:38.766Z,1009.78
2017-07-02T05:34:32.795Z,1009.77
2017-07-02T05:35:27.230Z,1009.73
2017-07-02T05:36:26.886Z,1009.74
2017-07-02T05:37:21.833Z,1009.75
2017-07-02T05:38:16.906Z,1009.74
2017-07-02T05:39:11.472Z,1009.77
2017-07-02T05:40:11.163Z,1009.71
2017-07-02T05:41:05.387Z,1009.69
2017-07-02T05:42:06.055Z,1009.70
2017-07-02T05:43:07.199Z,1009.68
2017-07-02T05:44:07.542Z,1009.68
2017-07-02T05:45:02.126Z,1009.70
2017-07-02T05:46:02.256Z,1009.66
2017-07-02T05:46:56.347Z,1009.68
2017-07-02T05:47:45.312Z,1009.65
2017-07-02T05:48:39.409Z,1009.61
2017-07-02T05:49:39.505Z,1009.70
2017-07-02T05:50:39.560Z,1009.70
2017-07-02T05:51:34.505Z,1009.66
2017-07-02T05:52:28.640Z,1009.70
2017-07-02T05:53:29.547Z,1009.64
2017-07-02T05:54:23.590Z,1009.69
2017-07-02T05:55:12.722Z,1009.69
2017-07-02T05:56:01.751Z,1009.68
2017-07-02T05:56:55.747Z,1009.70
2017-07-02T05:57:55.788Z,1009.73
2017-07-02T05:58:49.953Z,1009.75
2017-07-02T05:59:50.974Z,1009.73
2017-07-02T06:00:52.085Z,1009.80
2017-07-02T06:01:47.113Z,1009.76
2017-07-02T06:02:35.118Z,1009.79
2017-07-02T06:03:41.055Z,1009.86
2017-07-02T06:04:35.125Z,1009.84
2017-07-02T06:05:35.151Z,1009.84
2017-07-02T06:06:24.223Z,1009.82
2017-07-02T06:07:18.255Z,1009.85
2017-07-02T06:08:13.259Z,1009.87
2017-07-02T06:09:07.837Z,1009.88
2017-07-02T06:10:01.452Z,1009.90
2017-07-02T06:10:55.394Z,1009.83
2017-07-02T06:11:49.491Z,1009.87
2017-07-02T06:12:38.455Z,1009.84
2017-07-02T06:13:27.527Z,1009.87
2017-07-02T06:14:22.663Z,1009.85
2017-07-02T06:15:11.661Z,1009.81
2017-07-02T06:16:00.763Z,1009.82
2017-07-02T06:16:54.707Z,1009.79
2017-07-02T06:17:54.805Z,1009.79
2017-07-02T06:18:54.727Z,1009.81
2017-07-02T06:19:55.889Z,1009.83
2017-07-02T06:20:50.820Z,1009.82
2017-07-02T06:21:44.901Z,1009.80
2017-07-02T06:22:38.979Z,1009.80
2017-07-02T06:23:39.057Z,1009.83
2017-07-02T06:24:33.095Z,1009.89
2017-07-02T06:25:34.163Z,1009.89
2017-07-02T06:26:28.166Z,1009.90
2017-07-02T06:27:28.256Z,1009.94
2017-07-02T06:28:22.255Z,1009.94
2017-07-02T06:29:16.217Z,1009.95
2017-07-02T06:30:17.317Z,1009.95
2017-07-02T06:31:06.372Z,1009.93
2017-07-02T06:32:00.589Z,1009.99
2017-07-02T06:32:49.558Z,1010.02
2017-07-02T06:33:44.515Z,1010.01
2017-07-02T06:34:39.542Z,1010.07
2017-07-02T06:35:33.701Z,1010.14
2017-07-02T06:36:22.630Z,1010.14
2017-07-02T06:37:11.713Z,1010.12
2017-07-02T06:38:05.877Z,1010.13
2017-07-02T06:39:06.260Z,1010.11
2017-07-02T06:40:05.945Z,1010.11
2017-07-02T06:41:06.870Z,1010.06
2017-07-02T06:42:01.108Z,1010.07
2017-07-02T06:42:55.015Z,1010.06
2017-07-02T06:43:50.038Z,1010.02
2017-07-02T06:44:50.005Z,1010.03
2017-07-02T06:45:39.013Z,1010.04
2017-07-02T06:46:39.268Z,1010.04
2017-07-02T06:47:33.206Z,1010.10
2017-07-02T06:48:33.245Z,1010.05
2017-07-02T06:49:21.266Z,1010.08
2017-07-02T06:50:15.411Z,1009.99
2017-07-02T06:51:09.405Z,1009.95
2017-07-02T06:52:04.368Z,1009.95
2017-07-02T06:52:52.493Z,1009.91
2017-07-02T06:53:41.587Z,1009.91
2017-07-02T06:54:35.567Z,1009.90
2017-07-02T06:55:30.606Z,1009.91
2017-07-02T06:56:25.664Z,1009.91
2017-07-02T06:57:19.648Z,1009.98
2017-07-02T06:58:19.902Z,1010.03
2017-07-02T06:59:14.342Z,1010.03
2017-07-02T07:00:13.940Z,1010.09
2017-07-02T07:01:13.865Z,1010.11
2017-07-02T07:02:13.930Z,1010.04
2017-07-02T07:03:08.883Z,1010.02
2017-07-02T07:04:03.047Z,1009.98
2017-07-02T07:04:52.089Z,1009.97
2017-07-02T07:05:46.080Z,1009.96
2017-07-02T07:06:41.119Z,1009.96
2017-07-02T07:07:36.148Z,1009.95
2017-07-02T07:08:25.274Z,1009.99
2017-07-02T07:09:19.217Z,1010.00
2017-07-02T07:10:08.420Z,1010.02
2017-07-02T07:11:08.461Z,1010.12
2017-07-02T07:12:03.419Z,1010.13
2017-07-02T07:12:58.380Z,1010.16
2017-07-02T07:13:58.555Z,1010.07
2017-07-02T07:14:53.720Z,1010.05
2017-07-02T07:15:42.675Z,1009.98
2017-07-02T07:16:48.659Z,1009.93
2017-07-02T07:17:43.688Z,1009.95
2017-07-02T07:18:37.709Z,1009.93
2017-07-02T07:19:32.815Z,1009.91
2017-07-02T07:20:32.742Z,1009.95
2017-07-02T07:21:26.846Z,1010.03
2017-07-02T07:22:26.843Z,1010.05
2017-07-02T07:23:15.975Z,1010.08
2017-07-02T07:24:04.983Z,1010.11
2017-07-02T07:24:59.000Z,1010.13
2017-07-02T07:25:54.059Z,1010.17
2017-07-02T07:26:42.129Z,1010.18
2017-07-02T07:27:31.210Z,1010.22
2017-07-02T07:28:25.227Z,1010.25
2017-07-02T07:29:19.166Z,1010.32
2017-07-02T07:30:19.256Z,1010.38
2017-07-02T07:31:14.472Z,1010.36
2017-07-02T07:32:09.292Z,1010.36
2017-07-02T07:32:58.406Z,1010.37
2017-07-02T07:33:52.426Z,1010.40
2017-07-02T07:34:40.482Z,1010.38
2017-07-02T07:35:34.522Z,1010.37
2017-07-02T07:36:29.630Z,1010.33
2017-07-02T07:37:24.609Z,1010.28
2017-07-02T07:38:18.650Z,1010.20
2017-07-02T07:39:08.172Z,1010.20
2017-07-02T07:39:56.823Z,1010.22
2017-07-02T07:40:56.821Z,1010.19
2017-07-02T07:41:51.886Z,1010.12
2017-07-02T07:42:45.901Z,1010.09
2017-07-02T07:43:45.941Z,1010.11
2017-07-02T07:44:40.994Z,1010.10
2017-07-02T07:45:36.164Z,1010.15
2017-07-02T07:46:25.064Z,1010.15
2017-07-02T07:47:19.160Z,1010.20
2017-07-02T07:48:14.195Z,1010.20
2017-07-02T07:49:08.648Z,1010.22
2017-07-02T07:50:02.294Z,1010.19
2017-07-02T07:50:56.287Z,1010.19
2017-07-02T07:51:45.351Z,1010.18
2017-07-02T07:52:34.506Z,1010.15
2017-07-02T07:53:29.421Z,1010.16
2017-07-02T07:54:23.486Z,1010.23
2017-07-02T07:55:18.580Z,1010.24
2017-07-02T07:56:07.657Z,1010.21
2017-07-02T07:57:01.637Z,1010.25
2017-07-02T07:57:56.687Z,1010.26
2017-07-02T07:58:57.610Z,1010.27
2017-07-02T07:59:46.814Z,1010.30
2017-07-02T08:00:41.750Z,1010.32
2017-07-02T08:01:35.767Z,1010.28
2017-07-02T08:02:24.922Z,1010.38
2017-07-02T08:03:13.915Z,1010.33
2017-07-02T08:04:02.048Z,1010.31
2017-07-02T08:04:56.037Z,1010.30
2017-07-02T08:05:56.095Z,1010.31
2017-07-02T08:06:51.090Z,1010.31
2017-07-02T08:07:46.116Z,1010.41
2017-07-02T08:08:46.218Z,1010.44
2017-07-02T08:09:41.219Z,1010.45
2017-07-02T08:10:35.324Z,1010.44
2017-07-02T08:11:30.343Z,1010.52
2017-07-02T08:12:24.395Z,1010.53
2017-07-02T08:13:19.411Z,1010.49
2017-07-02T08:14:08.056Z,1010.45
2017-07-02T08:15:08.444Z,1010.53
2017-07-02T08:16:08.550Z,1010.55
2017-07-02T08:17:03.513Z,1010.58
2017-07-02T08:18:03.732Z,1010.54
2017-07-02T08:19:03.654Z,1010.55
2017-07-02T08:19:57.856Z,1010.52
2017-07-02T08:20:52.700Z,1010.53
2017-07-02T08:21:41.683Z,1010.58
2017-07-02T08:22:36.925Z,1010.46
2017-07-02T08:23:25.866Z,1010.49
2017-07-02T08:24:20.864Z,1010.50
2017-07-02T08:25:14.908Z,1010.51
2017-07-02T08:26:10.004Z,1010.57
2017-07-02T08:27:04.021Z,1010.62
2017-07-02T08:27:53.084Z,1010.62
2017-07-02T08:28:47.220Z,1010.64
2017-07-02T08:29:41.179Z,1010.61
2017-07-02T08:30:42.272Z,1010.62
2017-07-02T08:31:36.218Z,1010.66
2017-07-02T08:32:24.308Z,1010.57
2017-07-02T08:33:25.308Z,1010.51
2017-07-02T08:34:19.504Z,1010.48
2017-07-02T08:35:19.575Z,1010.51
2017-07-02T08:36:13.584Z,1010.54
2017-07-02T08:37:13.639Z,1010.56
2017-07-02T08:38:13.503Z,1010.62
2017-07-02T08:39:14.036Z,1010.68
2017-07-02T08:40:07.731Z,1010.75
2017-07-02T08:41:02.764Z,1010.67
2017-07-02T08:42:02.726Z,1010.66
2017-07-02T08:42:56.802Z,1010.58
2017-07-02T08:43:56.898Z,1010.61
2017-07-02T08:44:51.847Z,1010.63
2017-07-02T08:45:39.916Z,1010.66
2017-07-02T08:46:28.991Z,1010.67
2017-07-02T08:47:29.091Z,1010.77
2017-07-02T08:48:24.057Z,1010.82
2017-07-02T08:49:18.054Z,1010.86
2017-07-02T08:50:18.137Z,1010.86
2017-07-02T08:51:12.177Z,1010.71
2017-07-02T08:52:06.118Z,1010.62
2017-07-02T08:53:06.267Z,1010.60
2017-07-02T08:53:55.279Z,1010.60
2017-07-02T08:54:43.299Z,1010.61
2017-07-02T08:55:37.384Z,1010.60
2017-07-02T08:56:31.441Z,1010.63
2017-07-02T08:57:26.530Z,1010.67
2017-07-02T08:58:15.529Z,1010.77
2017-07-02T08:59:15.969Z,1010.81
2017-07-02T09:00:04.580Z,1010.81
2017-07-02T09:00:58.707Z,1010.77
2017-07-02T09:01:58.715Z,1010.79
2017-07-02T09:02:52.825Z,1010.79
2017-07-02T09:03:53.799Z,1010.83
2017-07-02T09:04:53.900Z,1010.72
2017-07-02T09:05:47.806Z,1010.88
2017-07-02T09:06:47.864Z,1010.78
2017-07-02T09:07:35.964Z,1010.73
2017-07-02T09:08:36.978Z,1010.75
2017-07-02T09:09:37.062Z,1010.72
2017-07-02T09:10:31.136Z,1010.79
2017-07-02T09:11:26.036Z,1010.81
2017-07-02T09:12:20.109Z,1010.81
2017-07-02T09:13:14.148Z,1010.80
2017-07-02T09:14:08.493Z,1010.80
2017-07-02T09:14:57.330Z,1010.83
2017-07-02T09:15:51.383Z,1010.85
2017-07-02T09:16:45.394Z,1010.75
2017-07-02T09:17:45.384Z,1010.80
2017-07-02T09:18:34.564Z,1010.82
2017-07-02T09:19:28.484Z,1010.84
2017-07-02T09:20:28.592Z,1010.82
2017-07-02T09:21:23.499Z,1010.83
2017-07-02T09:22:17.648Z,1010.81
2017-07-02T09:23:17.618Z,1010.81
2017-07-02T09:24:12.248Z,1010.83
2017-07-02T09:25:06.772Z,1010.94
2017-07-02T09:25:54.928Z,1010.88
2017-07-02T09:26:48.838Z,1010.92
2017-07-02T09:27:48.935Z,1010.91
2017-07-02T09:28:43.001Z,1010.86
2017-07-02T09:29:38.081Z,1010.94
2017-07-02T09:30:31.925Z,1010.91
2017-07-02T09:31:26.092Z,1011.11
2017-07-02T09:32:26.122Z,1010.97
2017-07-02T09:33:20.167Z,1010.92
2017-07-02T09:34:08.207Z,1011.02
2017-07-02T09:35:02.313Z,1010.99
2017-07-02T09:35:57.302Z,1010.94
2017-07-02T09:36:52.360Z,1010.98
2017-07-02T09:37:47.378Z,1011.02
2017-07-02T09:38:36.371Z,1011.00
2017-07-02T09:39:30.456Z,1011.08
2017-07-02T09:40:18.554Z,1011.08
2017-07-02T09:41:12.569Z,1010.98
2017-07-02T09:42:00.732Z,1011.00
2017-07-02T09:43:00.676Z,1011.18
2017-07-02T09:43:54.699Z,1011.00
2017-07-02T09:44:49.795Z,1011.05
2017-07-02T09:45:37.785Z,1011.10
2017-07-02T09:46:31.826Z,1011.04
2017-07-02T09:47:32.985Z,1011.04
2017-07-02T09:48:27.919Z,1011.08
2017-07-02T09:49:22.999Z,1011.02
2017-07-02T09:50:16.970Z,1011.09
2017-07-02T09:51:06.114Z,1011.03
2017-07-02T09:51:54.061Z,1010.98
2017-07-02T09:52:43.165Z,1011.09
2017-07-02T09:53:37.229Z,1011.01
2017-07-02T09:54:37.296Z,1011.06
2017-07-02T09:55:37.237Z,1011.01
2017-07-02T09:56:37.341Z,1010.97
2017-07-02T09:57:25.375Z,1011.14
2017-07-02T09:58:20.699Z,1011.12
2017-07-02T09:59:14.953Z,1011.07
2017-07-02T10:00:08.467Z,1011.08
2017-07-02T10:01:03.651Z,1011.11
2017-07-02T10:01:57.632Z,1010.96
2017-07-02T10:02:57.690Z,1011.17
2017-07-02T10:03:45.707Z,1011.19
2017-07-02T10:04:45.919Z,1011.18
2017-07-02T10:05:39.795Z,1011.10
2017-07-02T10:06:33.837Z,1011.05
2017-07-02T10:07:21.918Z,1011.04
2017-07-02T10:08:10.973Z,1011.04
2017-07-02T10:09:12.525Z,1011.18
2017-07-02T10:10:07.033Z,1011.07
2017-07-02T10:10:56.100Z,1011.07
2017-07-02T10:11:50.105Z,1011.14
2017-07-02T10:12:50.183Z,1011.19
2017-07-02T10:13:44.172Z,1011.14
2017-07-02T10:14:44.498Z,1011.15
2017-07-02T10:15:39.303Z,1011.16
2017-07-02T10:16:28.344Z,1011.16
2017-07-02T10:17:23.351Z,1011.19
2017-07-02T10:18:18.427Z,1011.23
2017-07-02T10:19:19.887Z,1011.21
2017-07-02T10:20:13.558Z,1011.19
2017-07-02T10:21:02.574Z,1011.21
2017-07-02T10:21:50.612Z,1011.20
2017-07-02T10:22:38.615Z,1011.23
2017-07-02T10:23:27.681Z,1011.12
2017-07-02T10:24:22.787Z,1011.10
2017-07-02T10:25:22.842Z,1011.03
2017-07-02T10:26:16.909Z,1011.07
2017-07-02T10:27:11.855Z,1011.00
2017-07-02T10:28:11.976Z,1011.10
2017-07-02T10:29:13.503Z,1011.14
2017-07-02T10:30:12.991Z,1011.11
2017-07-02T10:31:13.187Z,1011.14
2017-07-02T10:32:13.086Z,1011.06
2017-07-02T10:33:02.247Z,1011.05
2017-07-02T10:33:56.127Z,1011.13
2017-07-02T10:34:45.323Z,1011.17
2017-07-02T10:35:39.331Z,1011.18
2017-07-02T10:36:34.349Z,1011.16
2017-07-02T10:37:34.378Z,1011.09
2017-07-02T10:38:29.453Z,1011.07
2017-07-02T10:39:18.982Z,1011.04
2017-07-02T10:40:18.548Z,1011.11
2017-07-02T10:41:12.546Z,1011.10
2017-07-02T10:42:06.574Z,1011.15
2017-07-02T10:43:00.660Z,1011.19
2017-07-02T10:43:55.700Z,1011.27
2017-07-02T10:44:49.675Z,1011.13
2017-07-02T10:45:38.817Z,1011.11
2017-07-02T10:46:38.862Z,1011.10
2017-07-02T10:47:32.967Z,1011.13
2017-07-02T10:48:21.944Z,1011.21
2017-07-02T10:49:16.430Z,1011.18
2017-07-02T10:50:16.987Z,1011.13
2017-07-02T10:51:11.030Z,1011.17
2017-07-02T10:52:05.106Z,1011.16
2017-07-02T10:52:54.212Z,1011.22
2017-07-02T10:53:55.241Z,1011.16
2017-07-02T10:54:50.185Z,1011.16
2017-07-02T10:55:39.244Z,1011.21
2017-07-02T10:56:28.277Z,1011.19
2017-07-02T10:57:22.324Z,1011.20
2017-07-02T10:58:11.449Z,1011.18
2017-07-02T10:59:05.457Z,1011.26